Terminal Aerodrome Forecast
Issued by NWS

Home | Current Version | Previous Version | Text Only | Print | Product List | Glossary On
Versions: 1 2 3 4 5 6 7 8 9 10 11 12 13 14 15 16 17 18 19 20 21
658
FTUS45 KFGZ 010048 AAA
TAFSEZ
TAF AMD
KSEZ 010048Z 0101/0124 VRB10G20KT P6SM VCTS SCT050CB OVC070
      TEMPO 0101/0104 4SM SHRA BKN040
     FM010400 07007KT P6SM -SHRA BKN050
     FM011500 VRB05KT P6SM -SHRA SCT050 BKN070=

USA.gov is the U.S. government's official web portal to all federal, state and local government web resources and services.